Time;durP1;ratioP1;P1;durP2;ratioP2;P2;SDS_P1;SDS_P2;PMS_P1;PMS_P2;Temp;Humidity;BMP_temperature;BMP_pressure;BME280_temperature;BME280_humidity;BME280_pressure;Samples;Min_cycle;Max_cycle;Signal;HPM_P1;HPM_P2
2022/01/10 00:00:53;;;;;;;49.03;29.65;;;;;;;1.14;80.57;99427.47;1768329;80;21044;-76
2022/01/10 00:03:20;;;;;;;53.60;30.50;;;;;;;1.15;80.58;99426.08;1741330;80;21502;-75
2022/01/10 00:05:46;;;;;;;47.20;29.10;;;;;;;1.17;80.62;99426.48;1724855;83;21553;-75
2022/01/10 00:08:14;;;;;;;51.02;29.42;;;;;;;1.19;80.64;99428.53;1754557;81;22181;-74
2022/01/10 00:10:41;;;;;;;48.33;28.02;;;;;;;1.19;80.63;99428.53;1756327;81;20996;-76
2022/01/10 00:13:10;;;;;;;46.83;27.95;;;;;;;1.18;80.62;99424.25;1787844;80;21042;-76
2022/01/10 00:15:36;;;;;;;58.15;30.95;;;;;;;1.15;80.59;99426.08;1730858;81;21031;-75
2022/01/10 00:18:03;;;;;;;56.75;30.15;;;;;;;1.14;80.59;99420.50;1734966;82;20999;-76
2022/01/10 00:20:32;;;;;;;57.23;31.62;;;;;;;1.13;80.60;99430.53;1768584;80;20959;-76
2022/01/10 00:22:58;;;;;;;60.38;33.40;;;;;;;1.13;80.55;99426.63;1782829;80;21064;-75
2022/01/10 00:25:25;;;;;;;61.42;33.45;;;;;;;1.13;80.50;99429.70;1729673;81;21003;-75
2022/01/10 00:27:53;;;;;;;64.22;35.08;;;;;;;1.13;80.46;99429.70;1742467;82;20989;-76
2022/01/10 00:30:21;;;;;;;62.80;34.75;;;;;;;1.13;80.45;99424.50;1741805;81;21458;-75
2022/01/10 00:32:48;;;;;;;62.70;35.45;;;;;;;1.13;80.47;99429.70;1765207;80;21830;-76
2022/01/10 00:35:14;;;;;;;67.97;36.05;;;;;;;1.15;80.50;99430.45;1771284;79;21595;-76
2022/01/10 00:37:41;;;;;;;63.73;35.40;;;;;;;1.15;80.53;99432.58;1711814;81;21010;-75
2022/01/10 00:40:11;;;;;;;66.15;34.40;;;;;;;1.15;80.49;99436.95;1736944;82;21015;-75
2022/01/10 00:42:38;;;;;;;60.03;33.38;;;;;;;1.15;80.46;99437.78;1746785;82;21432;-76
2022/01/10 00:45:17;;;;;;;62.05;34.43;;;;;;;1.15;80.43;99427.38;1747518;82;21828;-75
2022/01/10 00:47:34;;;;;;;68.10;35.63;;;;;;;1.16;80.43;99428.25;1787619;79;20966;-76
2022/01/10 00:50:01;;;;;;;63.58;34.63;;;;;;;1.15;80.40;99430.45;1764177;81;21453;-75
2022/01/10 00:52:28;;;;;;;61.40;33.90;;;;;;;1.16;80.40;99437.35;1735734;81;21438;-76
2022/01/10 00:54:55;;;;;;;57.80;32.93;;;;;;;1.15;80.32;99433.88;1739183;80;21028;-76
2022/01/10 00:57:22;;;;;;;55.70;31.52;;;;;;;1.14;80.35;99433.51;1771130;81;21887;-77
2022/01/10 00:59:48;;;;;;;48.83;29.50;;;;;;;1.15;80.38;99433.88;1797134;79;21438;-76
2022/01/10 01:02:14;;;;;;;57.10;32.15;;;;;;;1.18;80.37;99433.36;1763927;81;21382;-76
2022/01/10 01:04:41;;;;;;;53.65;30.62;;;;;;;1.18;80.37;99442.46;1752649;81;21071;-76
2022/01/10 01:07:09;;;;;;;50.08;29.23;;;;;;;1.17;80.38;99447.30;1742154;80;20940;-76
2022/01/10 01:09:35;;;;;;;49.67;29.90;;;;;;;1.17;80.38;99447.30;1777095;79;21853;-76
2022/01/10 01:12:20;;;;;;;43.65;27.22;;;;;;;1.15;80.32;99442.15;1737669;82;21007;-76
2022/01/10 01:17:13;;;;;;;43.20;27.17;;;;;;;1.11;80.38;99445.39;1786277;79;21445;-76
2022/01/10 01:25:10;;;;;;;46.75;27.82;;;;;;;1.12;80.35;99431.46;1755571;80;21102;-76
2022/01/10 01:27:38;;;;;;;45.43;28.00;;;;;;;1.12;80.42;99432.77;1753549;79;20969;-77
2022/01/10 01:30:06;;;;;;;45.05;27.90;;;;;;;1.15;80.42;99441.69;1711098;82;20984;-77
2022/01/10 01:32:33;;;;;;;46.33;27.25;;;;;;;1.16;80.38;99443.85;1737283;82;21063;-76
2022/01/10 01:35:05;;;;;;;42.65;26.60;;;;;;;1.16;80.36;99455.56;1735002;81;22216;-77
2022/01/10 01:37:27;;;;;;;42.33;26.33;;;;;;;1.15;80.30;99457.29;1784383;80;20940;-77
2022/01/10 01:39:54;;;;;;;48.30;29.63;;;;;;;1.15;80.29;99463.79;1793331;80;21045;-77
2022/01/10 01:42:36;;;;;;;55.00;31.48;;;;;;;1.14;80.27;99461.28;1787464;80;21497;-76
2022/01/10 01:45:02;;;;;;;53.73;31.80;;;;;;;1.12;80.29;99462.67;1740879;81;21023;-77
2022/01/10 01:47:28;;;;;;;52.75;32.58;;;;;;;1.13;80.31;99462.20;1754645;80;21820;-77
2022/01/10 01:49:58;;;;;;;51.85;31.30;;;;;;;1.13;80.36;99459.14;1753268;81;20893;-77
2022/01/10 01:52:23;;;;;;;51.00;31.10;;;;;;;1.15;80.37;99462.49;1755534;81;21501;-77
2022/01/10 01:54:51;;;;;;;49.53;31.85;;;;;;;1.17;80.37;99465.50;1739641;81;21000;-77
2022/01/10 01:57:18;;;;;;;52.25;31.23;;;;;;;1.18;80.37;99465.88;1757707;80;20961;-76
2022/01/10 01:59:46;;;;;;;49.27;31.00;;;;;;;1.18;80.39;99465.41;1753184;81;21782;-77
2022/01/10 02:02:12;;;;;;;57.48;37.70;;;;;;;1.19;80.37;99468.38;1736166;81;21019;-77
2022/01/10 02:04:38;;;;;;;65.30;40.50;;;;;;;1.18;80.38;99468.47;1735677;81;21008;-76
2022/01/10 02:07:05;;;;;;;64.00;41.73;;;;;;;1.15;80.38;99466.39;1793574;80;21421;-77
2022/01/10 02:09:32;;;;;;;67.25;41.77;;;;;;;1.17;80.40;99462.89;1790274;80;20992;-77
2022/01/10 02:11:59;;;;;;;55.90;35.90;;;;;;;1.17;80.43;99462.89;1790147;80;21834;-77
2022/01/10 02:14:26;;;;;;;47.83;31.37;;;;;;;1.19;80.44;99470.14;1773608;80;21090;-77
2022/01/10 02:16:57;;;;;;;46.45;31.77;;;;;;;1.18;80.45;99461.97;1755854;80;21008;-76
2022/01/10 02:19:23;;;;;;;52.55;33.90;;;;;;;1.17;80.47;99461.13;1736228;81;21442;-76
2022/01/10 02:21:50;;;;;;;48.90;32.67;;;;;;;1.19;80.49;99459.74;1753616;81;21040;-77
2022/01/10 02:24:17;;;;;;;46.13;30.23;;;;;;;1.19;80.47;99461.05;1787690;80;22261;-77
2022/01/10 02:26:48;;;;;;;53.90;32.15;;;;;;;1.16;80.52;99462.06;1728135;81;21087;-76
2022/01/10 02:29:14;;;;;;;52.45;32.93;;;;;;;1.14;80.54;99462.58;1755663;81;20964;-76
2022/01/10 02:31:41;;;;;;;47.17;29.55;;;;;;;1.14;80.59;99466.48;1755816;81;21019;-78
2022/01/10 02:34:09;;;;;;;51.10;32.65;;;;;;;1.16;80.59;99463.36;1757161;80;21331;-77
2022/01/10 02:36:36;;;;;;;52.43;33.25;;;;;;;1.15;80.54;99461.19;1787565;80;22176;-77
2022/01/10 02:39:09;;;;;;;51.58;31.70;;;;;;;1.16;80.52;99458.16;1796258;80;20967;-77
2022/01/10 02:41:38;;;;;;;;;;;;;;;1.14;80.52;99464.72;1799031;80;20983;-76
2022/01/10 02:44:09;;;;;;;49.88;31.27;;;;;;;1.15;80.56;99468.16;1765516;80;21232;-77
2022/01/10 02:46:37;;;;;;;42.10;27.70;;;;;;;1.13;80.61;99468.70;1784575;79;20955;-77
2022/01/10 02:49:12;;;;;;;38.33;25.48;;;;;;;1.12;80.65;99470.94;1763613;81;21834;-77
2022/01/10 02:51:39;;;;;;;39.10;25.65;;;;;;;1.11;80.69;99474.00;1735045;81;20955;-77
2022/01/10 02:54:06;;;;;;;37.35;24.18;;;;;;;1.10;80.70;99471.03;1720814;81;21398;-76
2022/01/10 02:56:33;;;;;;;30.40;20.00;;;;;;;1.11;80.73;99479.20;1752997;80;21003;-77
2022/01/10 02:58:59;;;;;;;28.45;19.60;;;;;;;1.12;80.75;99482.17;1759041;80;21436;-77
2022/01/10 03:01:26;;;;;;;19.95;14.05;;;;;;;1.12;80.77;99482.64;1759383;81;22126;-76
2022/01/10 03:03:53;;;;;;;16.07;12.25;;;;;;;1.12;80.82;99481.34;1770627;80;21000;-77
2022/01/10 03:06:19;;;;;;;15.00;11.12;;;;;;;1.11;80.85;99481.80;1762714;81;21502;-76
2022/01/10 03:08:46;;;;;;;13.38;10.20;;;;;;;1.10;80.86;99476.69;1761870;81;21090;-77
2022/01/10 03:11:12;;;;;;;11.57;9.20;;;;;;;1.07;80.88;99489.41;1734731;82;21445;-76
2022/01/10 03:13:39;;;;;;;11.90;9.00;;;;;;;1.08;80.90;99491.55;1750439;80;22303;-77
2022/01/10 03:16:06;;;;;;;10.43;7.78;;;;;;;1.07;80.87;99486.80;1744798;80;21400;-76
2022/01/10 03:18:33;;;;;;;10.10;8.05;;;;;;;1.06;80.90;99486.86;1770027;80;21476;-75
2022/01/10 03:20:59;;;;;;;10.40;8.10;;;;;;;1.04;80.89;99486.11;1783470;79;21010;-77
2022/01/10 03:23:26;;;;;;;11.18;8.93;;;;;;;1.01;80.92;99484.99;1757565;80;21130;-77
2022/01/10 03:25:52;;;;;;;9.65;7.72;;;;;;;0.99;80.95;99486.84;1765967;80;21838;-77
2022/01/10 03:28:19;;;;;;;11.03;8.20;;;;;;;0.99;80.98;99491.58;1734330;82;20956;-77
2022/01/10 03:30:45;;;;;;;10.48;8.68;;;;;;;0.98;80.99;99497.70;1757177;80;20999;-77
2022/01/10 03:33:14;;;;;;;10.38;8.28;;;;;;;0.97;81.01;99492.59;1796089;80;20999;-77
2022/01/10 03:35:41;;;;;;;11.30;9.08;;;;;;;0.95;81.06;99497.84;1769671;80;21025;-77
2022/01/10 03:38:09;;;;;;;11.43;8.80;;;;;;;0.94;81.12;99504.44;1792672;79;22619;-77
2022/01/10 03:40:36;;;;;;;10.55;7.85;;;;;;;0.93;81.14;99509.27;1762997;80;21310;-77
2022/01/10 03:43:04;;;;;;;10.45;8.68;;;;;;;0.92;81.19;99509.72;1763975;80;21024;-77
2022/01/10 03:45:32;;;;;;;10.68;8.75;;;;;;;0.94;81.20;99504.44;1735500;80;21093;-76
2022/01/10 03:47:59;;;;;;;10.82;8.58;;;;;;;0.95;81.22;99509.55;1787978;80;21457;-76
2022/01/10 03:50:26;;;;;;;10.75;8.28;;;;;;;0.96;81.24;99509.92;1753194;81;22206;-77
2022/01/10 03:52:52;;;;;;;10.72;8.90;;;;;;;0.97;81.26;99514.69;1753510;81;21502;-78
2022/01/10 03:55:19;;;;;;;9.90;7.92;;;;;;;0.97;81.25;99518.59;1756458;80;20968;-75
2022/01/10 03:57:47;;;;;;;11.15;8.95;;;;;;;0.97;81.28;99521.20;1778857;80;21002;-76
2022/01/10 04:00:15;;;;;;;10.40;8.95;;;;;;;0.97;81.27;99527.70;1729751;80;21521;-76
2022/01/10 04:02:52;;;;;;;11.75;9.38;;;;;;;0.96;81.27;99527.28;1737436;81;22572;-76
2022/01/10 04:05:14;;;;;;;10.63;8.63;;;;;;;0.96;81.26;99532.02;1725880;82;21480;-76
2022/01/10 04:07:42;;;;;;;11.48;9.58;;;;;;;0.96;81.28;99534.63;1747267;81;21007;-76
2022/01/10 04:10:09;;;;;;;12.18;9.80;;;;;;;0.95;81.27;99538.15;1753265;81;20948;-76
2022/01/10 04:12:36;;;;;;;13.05;10.63;;;;;;;0.94;81.28;99549.47;1753336;81;21371;-77
2022/01/10 04:15:04;;;;;;;13.05;9.75;;;;;;;0.95;81.28;99549.01;1762997;80;21859;-77
2022/01/10 04:17:31;;;;;;;14.15;11.18;;;;;;;0.95;81.30;99549.84;1754859;80;21007;-77
2022/01/10 04:19:57;;;;;;;13.53;10.88;;;;;;;0.95;81.28;99555.05;1756394;80;20985;-76
2022/01/10 04:22:24;;;;;;;15.70;12.47;;;;;;;0.95;81.27;99554.21;1791721;80;20987;-75
2022/01/10 04:24:51;;;;;;;15.65;13.30;;;;;;;0.95;81.28;99559.41;1768963;80;21026;-77
2022/01/10 04:27:17;;;;;;;16.80;13.35;;;;;;;0.91;81.29;99554.84;1727836;81;22823;-75
2022/01/10 04:29:44;;;;;;;16.45;12.75;;;;;;;0.91;81.30;99554.01;1723602;81;21489;-76
2022/01/10 04:32:12;;;;;;;17.48;13.10;;;;;;;0.90;81.31;99560.97;1755556;80;21485;-77
2022/01/10 04:34:39;;;;;;;16.70;13.38;;;;;;;0.90;81.32;99566.17;1746592;80;20968;-77
2022/01/10 04:37:06;;;;;;;18.27;14.35;;;;;;;0.88;81.29;99572.38;1786078;80;20998;-77
2022/01/10 04:39:34;;;;;;;19.02;15.10;;;;;;;0.85;81.31;99572.89;1772143;80;22480;-76
2022/01/10 04:42:01;;;;;;;18.70;14.55;;;;;;;0.84;81.33;99570.38;1776623;79;21586;-77
2022/01/10 04:44:28;;;;;;;18.67;14.35;;;;;;;0.84;81.33;99567.31;1798412;79;21451;-77
2022/01/10 04:46:54;;;;;;;18.57;15.05;;;;;;;0.84;81.37;99574.28;1787162;79;20963;-77
2022/01/10 04:49:26;;;;;;;20.15;16.10;;;;;;;0.85;81.36;99572.05;1771612;79;21007;-76
2022/01/10 04:51:49;;;;;;;19.27;15.10;;;;;;;0.83;81.36;99575.20;1757268;79;22209;-76
2022/01/10 04:54:17;;;;;;;20.45;15.88;;;;;;;0.83;81.36;99580.40;1756114;81;21395;-76
2022/01/10 04:56:44;;;;;;;19.35;15.10;;;;;;;0.82;81.37;99585.22;1790614;79;21000;-76
2022/01/10 04:59:11;;;;;;;18.90;14.63;;;;;;;0.80;81.37;99586.61;1781144;79;21501;-77
2022/01/10 05:01:38;;;;;;;20.82;16.55;;;;;;;0.81;81.38;99592.64;1771967;79;21335;-76
2022/01/10 05:04:05;;;;;;;19.67;15.63;;;;;;;0.79;81.41;99591.89;1769251;80;22486;-76
2022/01/10 05:06:33;;;;;;;21.37;16.35;;;;;;;0.79;81.40;99595.78;1798310;79;20975;-76
2022/01/10 05:09:00;;;;;;;20.60;15.50;;;;;;;0.79;81.42;99595.33;1777890;79;20964;-74
2022/01/10 05:11:40;;;;;;;20.35;15.10;;;;;;;0.80;81.39;99606.56;1796389;79;21056;-79
2022/01/10 05:14:08;;;;;;;19.82;16.00;;;;;;;0.77;81.43;99601.07;1798093;79;20927;-70
2022/01/10 05:16:34;;;;;;;19.67;15.43;;;;;;;0.78;81.46;99605.34;1766668;79;21780;-72
2022/01/10 05:19:02;;;;;;;21.23;15.70;;;;;;;0.79;81.45;99599.69;1764393;79;21011;-72
2022/01/10 05:21:29;;;;;;;19.00;14.98;;;;;;;0.79;81.45;99603.13;1732300;81;21004;-72
2022/01/10 05:23:56;;;;;;;21.42;16.02;;;;;;;0.78;81.47;99603.21;1787842;79;21046;-72
2022/01/10 05:26:25;;;;;;;21.20;14.95;;;;;;;0.76;81.42;99607.63;1727758;81;21008;-77
2022/01/10 05:28:55;;;;;;;19.17;14.68;;;;;;;0.75;81.45;99605.94;1778223;79;21855;-76
2022/01/10 05:31:22;;;;;;;19.82;14.30;;;;;;;0.76;81.46;99615.42;1752265;81;20996;-75
2022/01/10 05:33:51;;;;;;;18.62;15.10;;;;;;;0.76;81.46;99612.82;1769021;79;21557;-76
2022/01/10 05:36:17;;;;;;;21.77;15.53;;;;;;;0.76;81.47;99615.42;1790228;79;20994;-75
2022/01/10 05:38:45;;;;;;;19.12;14.50;;;;;;;0.74;81.48;99619.86;1754371;81;20960;-77
2022/01/10 05:41:12;;;;;;;20.65;15.75;;;;;;;0.75;81.48;99625.44;1742086;81;22352;-79
2022/01/10 05:43:39;;;;;;;20.90;15.60;;;;;;;0.72;81.46;99619.11;1745705;80;20992;-75
2022/01/10 05:46:09;;;;;;;20.15;14.87;;;;;;;0.70;81.46;99630.05;1746523;80;21004;-75
2022/01/10 05:48:36;;;;;;;22.00;16.48;;;;;;;0.72;81.50;99639.44;1722819;80;21018;-75
2022/01/10 05:51:03;;;;;;;22.87;17.00;;;;;;;0.72;81.50;99643.34;1726222;81;20972;-75
2022/01/10 05:53:31;;;;;;;21.73;17.15;;;;;;;0.69;81.48;99647.86;1749015;81;22520;-73
2022/01/10 05:55:58;;;;;;;21.87;16.93;;;;;;;0.66;81.48;99652.73;1740968;81;20947;-77
2022/01/10 05:58:27;;;;;;;22.75;16.97;;;;;;;0.65;81.51;99658.84;1743880;80;21064;-73
2022/01/10 06:00:53;;;;;;;22.05;16.42;;;;;;;0.65;81.54;99667.11;1746861;80;21000;-75
2022/01/10 06:03:20;;;;;;;22.58;15.95;;;;;;;0.64;81.50;99666.73;1743280;81;21375;-78
2022/01/10 06:05:48;;;;;;;21.62;16.35;;;;;;;0.61;81.52;99666.43;1767227;80;21831;-79
2022/01/10 06:08:15;;;;;;;20.57;15.85;;;;;;;0.61;81.53;99672.09;1755502;80;20927;-75
2022/01/10 06:10:43;;;;;;;19.07;14.47;;;;;;;0.61;81.52;99675.98;1784795;80;21006;-77
2022/01/10 06:13:19;;;;;;;20.25;14.80;;;;;;;0.59;81.47;99674.77;1791984;80;20999;-79
2022/01/10 06:15:46;;;;;;;17.85;13.43;;;;;;;0.57;81.47;99683.07;1752345;80;21113;-75
2022/01/10 06:18:13;;;;;;;17.20;13.75;;;;;;;0.55;81.47;99688.35;1728948;81;21873;-77
2022/01/10 06:20:39;;;;;;;18.35;14.15;;;;;;;0.54;81.43;99693.63;1715972;83;21375;-75
2022/01/10 06:23:08;;;;;;;16.75;13.28;;;;;;;0.51;81.42;99697.23;1748063;81;20949;-79
2022/01/10 06:25:34;;;;;;;18.65;14.07;;;;;;;0.52;81.45;99709.75;1735814;81;21259;-75
2022/01/10 06:28:02;;;;;;;18.40;13.75;;;;;;;0.50;81.40;99698.61;1755432;80;21011;-75
2022/01/10 06:30:29;;;;;;;19.17;14.15;;;;;;;0.49;81.38;99711.22;1723165;81;21768;-76
2022/01/10 06:32:56;;;;;;;19.05;14.10;;;;;;;0.48;81.31;99716.00;1755052;80;20931;-75
2022/01/10 06:35:23;;;;;;;20.25;14.60;;;;;;;0.48;81.30;99723.80;1784599;80;21034;-79
2022/01/10 06:37:50;;;;;;;20.75;15.30;;;;;;;0.47;81.29;99726.02;1746980;80;20979;-85
2022/01/10 06:40:17;;;;;;;23.02;16.27;;;;;;;0.50;81.32;99731.08;1773953;80;20968;-84
2022/01/10 06:42:45;;;;;;;27.75;18.52;;;;;;;0.50;81.29;99731.92;1751602;81;22848;-81
2022/01/10 06:45:12;;;;;;;28.38;19.15;;;;;;;0.50;81.25;99736.28;1767620;80;21418;-85
2022/01/10 06:47:39;;;;;;;27.50;19.37;;;;;;;0.48;81.21;99737.66;1776607;79;21090;-81
2022/01/10 06:50:07;;;;;;;27.75;19.52;;;;;;;0.47;81.22;99736.41;1762154;81;21401;-83
2022/01/10 06:52:35;;;;;;;29.77;20.20;;;;;;;0.47;81.22;99742.44;1777056;80;21014;-79
2022/01/10 06:55:04;;;;;;;28.27;19.20;;;;;;;0.46;81.28;99743.36;1776556;80;21833;-82
2022/01/10 06:57:31;;;;;;;28.42;18.73;;;;;;;0.48;81.25;99740.68;1730421;83;21027;-82
2022/01/10 06:59:58;;;;;;;29.25;19.07;;;;;;;0.47;81.29;99750.69;1773413;80;20971;-83
2022/01/10 07:02:26;;;;;;;29.95;19.85;;;;;;;0.49;81.32;99743.23;1740248;81;21423;-82
2022/01/10 07:04:52;;;;;;;30.20;20.80;;;;;;;0.50;81.27;99754.00;1765401;80;21042;-81
2022/01/10 07:07:19;;;;;;;30.95;20.12;;;;;;;0.50;81.27;99746.67;1745965;81;22208;-75
2022/01/10 07:09:46;;;;;;;28.77;19.15;;;;;;;0.52;81.25;99753.47;1791971;80;20998;-73
2022/01/10 07:12:13;;;;;;;30.37;18.82;;;;;;;0.53;81.24;99749.95;1738388;81;21491;-74
2022/01/10 07:14:44;;;;;;;26.77;17.52;;;;;;;0.53;81.18;99749.95;1735159;80;21473;-76
2022/01/10 07:17:12;;;;;;;26.55;17.30;;;;;;;0.51;81.09;99749.19;1744874;81;21022;-77
2022/01/10 07:19:38;;;;;;;26.68;17.82;;;;;;;0.50;81.04;99756.61;1769758;80;21841;-78
2022/01/10 07:22:05;;;;;;;26.52;18.27;;;;;;;0.51;81.00;99760.05;1776950;80;21038;-76
2022/01/10 07:24:32;;;;;;;25.02;17.45;;;;;;;0.51;80.99;99760.88;1754811;81;21035;-82
2022/01/10 07:26:59;;;;;;;24.27;16.48;;;;;;;0.52;80.93;99765.16;1769095;80;20967;-82
2022/01/10 07:29:25;;;;;;;25.60;17.62;;;;;;;0.51;80.81;99763.94;1786639;80;20951;-79
2022/01/10 07:31:51;;;;;;;24.35;16.30;;;;;;;0.48;80.75;99763.64;1761673;80;21736;-89
2022/01/10 07:34:18;;;;;;;24.07;16.48;;;;;;;0.49;80.75;99769.22;1774379;79;20941;-80
2022/01/10 07:36:44;;;;;;;26.52;17.73;;;;;;;0.50;80.74;99772.66;1756405;80;20991;-82
2022/01/10 07:39:11;;;;;;;26.50;16.80;;;;;;;0.51;80.71;99775.17;1730911;80;21032;-79
2022/01/10 07:41:37;;;;;;;28.30;18.85;;;;;;;0.54;80.69;99783.27;1761233;80;20964;-81
2022/01/10 07:44:05;;;;;;;26.93;16.90;;;;;;;0.53;80.62;99788.09;1728634;83;22225;-79
2022/01/10 07:46:32;;;;;;;31.95;20.68;;;;;;;0.52;80.57;99782.51;1754517;80;21126;-81
2022/01/10 07:48:58;;;;;;;31.77;19.80;;;;;;;0.47;80.31;99786.61;1742590;81;20956;-79
2022/01/10 07:51:26;;;;;;;30.35;19.40;;;;;;;0.43;80.23;99790.73;1732121;81;21043;-77
2022/01/10 07:53:53;;;;;;;31.52;20.50;;;;;;;0.39;80.14;99791.35;1768020;80;21018;-77
2022/01/10 07:56:19;;;;;;;29.63;19.65;;;;;;;0.35;80.07;99791.09;1744991;81;21862;-77
2022/01/10 07:58:50;;;;;;;32.50;20.75;;;;;;;0.31;80.05;99792.16;1749071;81;20979;-77
2022/01/10 08:01:14;;;;;;;29.57;19.20;;;;;;;0.31;80.07;99797.36;1758333;80;20975;-78
2022/01/10 08:03:40;;;;;;;29.25;19.25;;;;;;;0.31;80.05;99806.45;1767820;80;21368;-74
2022/01/10 08:06:07;;;;;;;31.48;19.60;;;;;;;0.30;79.94;99811.72;1770867;80;20959;-76
2022/01/10 08:08:34;;;;;;;31.52;20.52;;;;;;;0.27;79.96;99809.63;1768924;80;21822;-75
2022/01/10 08:11:01;;;;;;;31.48;20.02;;;;;;;0.30;79.94;99816.91;1774336;80;21499;-76
2022/01/10 08:13:29;;;;;;;29.92;19.02;;;;;;;0.31;79.95;99823.33;1753369;80;20936;-75
2022/01/10 08:15:56;;;;;;;31.85;20.40;;;;;;;0.30;79.89;99822.95;1749001;80;21391;-77
2022/01/10 08:18:23;;;;;;;32.33;20.52;;;;;;;0.23;79.78;99821.08;1776966;79;20983;-75
2022/01/10 08:20:49;;;;;;;31.97;20.75;;;;;;;0.19;79.76;99824.74;1747130;81;22186;-75
2022/01/10 08:23:16;;;;;;;32.53;21.42;;;;;;;0.14;79.75;99825.39;1716177;82;20941;-76
2022/01/10 08:25:42;;;;;;;31.02;20.60;;;;;;;0.12;79.74;99835.47;1771694;80;21499;-79
2022/01/10 08:28:08;;;;;;;30.05;19.10;;;;;;;0.09;79.74;99839.02;1782942;80;20959;-78
2022/01/10 08:30:35;;;;;;;30.17;19.85;;;;;;;0.09;79.79;99834.29;1751223;81;21215;-77
2022/01/10 08:33:02;;;;;;;30.00;19.98;;;;;;;0.12;79.83;99835.47;1746265;80;21820;-77
2022/01/10 08:35:29;;;;;;;31.40;19.35;;;;;;;0.13;79.88;99834.55;1728691;83;21325;-80
2022/01/10 08:37:55;;;;;;;25.48;16.57;;;;;;;0.16;79.92;99835.70;1731496;81;21049;-75
2022/01/10 08:40:21;;;;;;;25.65;17.75;;;;;;;0.21;79.92;99836.36;1724220;80;21023;-81
2022/01/10 08:42:48;;;;;;;26.48;17.75;;;;;;;0.18;79.79;99837.31;1784191;80;20947;-80
2022/01/10 08:45:14;;;;;;;24.77;17.30;;;;;;;0.18;79.79;99839.06;1783860;80;22180;-78
2022/01/10 08:47:41;;;;;;;26.07;17.23;;;;;;;0.21;79.78;99845.45;1747979;80;21075;-80
2022/01/10 08:50:09;;;;;;;24.30;16.32;;;;;;;0.21;79.68;99849.34;1745253;80;21059;-81
2022/01/10 08:52:37;;;;;;;20.70;13.48;;;;;;;0.16;79.56;99850.83;1758396;81;21063;-69
2022/01/10 08:55:05;;;;;;;19.92;14.00;;;;;;;0.15;79.50;99847.00;1757926;79;21012;-71
2022/01/10 08:57:32;;;;;;;21.17;14.47;;;;;;;0.12;79.41;99861.44;1790477;80;22633;-73
2022/01/10 08:59:58;;;;;;;20.43;14.98;;;;;;;0.09;79.33;99857.66;1750891;81;20964;-74
2022/01/10 09:02:24;;;;;;;20.55;14.15;;;;;;;0.07;79.31;99858.19;1722265;81;21070;-76
2022/01/10 09:04:51;;;;;;;21.93;14.47;;;;;;;0.04;79.23;99851.84;1713559;82;21018;-78
2022/01/10 09:07:18;;;;;;;21.93;13.80;;;;;;;0.01;79.22;99866.27;1741821;82;21384;-74
2022/01/10 09:09:45;;;;;;;18.37;12.98;;;;;;;-0.01;79.21;99868.45;1742408;82;39846;-71
2022/01/10 09:12:12;;;;;;;14.68;10.65;;;;;;;-0.04;79.15;99869.89;1744477;81;21068;-70
2022/01/10 09:14:38;;;;;;;14.45;10.55;;;;;;;-0.06;79.00;99863.93;1733972;82;20965;-74
2022/01/10 09:17:05;;;;;;;18.52;11.97;;;;;;;-0.08;78.99;99867.05;1755365;81;21542;-74
2022/01/10 09:19:31;;;;;;;15.72;10.95;;;;;;;-0.05;79.05;99870.80;1755441;81;21047;-74
2022/01/10 09:21:58;;;;;;;15.98;10.93;;;;;;;-0.02;79.00;99869.82;1734876;81;21807;-72
2022/01/10 09:24:24;;;;;;;15.98;11.22;;;;;;;0.04;79.02;99868.72;1710763;83;21048;-73
2022/01/10 09:26:51;;;;;;;14.28;10.28;;;;;;;0.10;78.99;99867.16;1756470;80;21065;-72
2022/01/10 09:29:17;;;;;;;15.55;11.20;;;;;;;0.13;78.93;99870.91;1741041;81;21029;-76
2022/01/10 09:31:45;;;;;;;14.38;10.43;;;;;;;0.17;78.86;99862.90;1723666;83;21510;-71
2022/01/10 09:34:11;;;;;;;12.75;9.18;;;;;;;0.17;78.67;99867.25;1752395;80;22245;-74
2022/01/10 09:36:38;;;;;;;13.78;9.45;;;;;;;0.21;78.66;99863.63;1762632;80;20952;-72
2022/01/10 09:39:05;;;;;;;12.07;8.90;;;;;;;0.20;78.41;99864.08;1731917;81;21525;-72
2022/01/10 09:41:31;;;;;;;12.70;9.35;;;;;;;0.19;78.27;99866.72;1735243;81;21091;-72
2022/01/10 09:44:01;;;;;;;12.05;9.18;;;;;;;0.17;78.17;99868.55;1734555;82;20959;-73
2022/01/10 09:46:28;;;;;;;11.70;8.78;;;;;;;0.20;78.16;99869.28;1744579;81;21846;-72
2022/01/10 09:48:54;;;;;;;11.78;8.55;;;;;;;0.23;78.11;99878.22;1745494;82;21470;-73
2022/01/10 09:51:23;;;;;;;9.78;7.47;;;;;;;0.24;78.06;99877.30;1745384;82;20937;-73
2022/01/10 09:53:49;;;;;;;9.00;6.75;;;;;;;0.27;77.82;99881.51;1745791;82;21464;-73
2022/01/10 09:56:16;;;;;;;8.63;6.83;;;;;;;0.26;77.69;99872.88;1742390;80;20888;-73
2022/01/10 09:58:43;;;;;;;9.00;7.35;;;;;;;0.30;77.69;99867.56;1716624;82;22249;-72
2022/01/10 10:01:12;;;;;;;9.15;7.50;;;;;;;0.33;77.52;99873.45;1715697;83;20961;-73
2022/01/10 10:03:39;;;;;;;8.98;7.10;;;;;;;0.32;77.30;99876.97;1735725;80;21367;-73
2022/01/10 10:06:05;;;;;;;8.88;7.03;;;;;;;0.30;77.14;99880.09;1781943;79;21011;-73
2022/01/10 10:08:33;;;;;;;9.88;7.67;;;;;;;0.29;77.12;99878.41;1734354;82;21489;-73
2022/01/10 10:10:59;;;;;;;11.97;8.75;;;;;;;0.30;76.99;99877.95;1735052;81;21831;-73
2022/01/10 10:13:26;;;;;;;11.57;8.53;;;;;;;0.32;76.95;99881.31;1734380;81;21083;-72
2022/01/10 10:15:55;;;;;;;12.15;9.13;;;;;;;0.36;76.94;99884.99;1763975;81;21003;-73
2022/01/10 10:18:21;;;;;;;13.60;9.75;;;;;;;0.39;77.00;99882.28;1720576;82;21083;-72
2022/01/10 10:20:47;;;;;;;11.85;8.88;;;;;;;0.43;77.01;99882.97;1739231;82;21420;-73
2022/01/10 10:23:16;;;;;;;12.47;9.08;;;;;;;0.45;76.99;99889.77;1742026;82;22831;-73
2022/01/10 10:25:52;;;;;;;11.75;9.20;;;;;;;0.46;76.80;99895.34;1761222;81;21490;-73
2022/01/10 10:28:18;;;;;;;12.53;9.10;;;;;;;0.43;76.75;99897.25;1761352;80;20935;-73
2022/01/10 10:30:45;;;;;;;12.25;8.73;;;;;;;0.41;76.60;99892.14;1704300;81;21051;-73
2022/01/10 10:33:22;;;;;;;12.33;9.65;;;;;;;0.40;76.61;99894.81;1785831;80;21031;-72
2022/01/10 10:36:07;;;;;;;11.80;9.15;;;;;;;0.40;76.64;99898.25;1734872;80;21573;-72
2022/01/10 10:38:32;;;;;;;;;;;;;;;0.44;76.75;99895.88;1751008;81;21066;-73
2022/01/10 10:41:04;;;;;;;10.65;7.78;;;;;;;0.49;76.75;99896.98;1729871;82;20179;-73
2022/01/10 10:43:34;;;;;;;10.75;8.30;;;;;;;0.50;76.72;99896.91;1760811;81;21031;-71
2022/01/10 10:46:04;;;;;;;10.18;8.25;;;;;;;0.50;76.65;99896.91;1760326;81;20959;-72
2022/01/10 10:48:34;;;;;;;11.05;7.87;;;;;;;0.51;76.64;99898.59;1750138;81;21743;-74
2022/01/10 10:50:59;;;;;;;11.22;8.53;;;;;;;0.53;76.63;99897.22;1734056;82;21010;-73
2022/01/10 10:53:27;;;;;;;9.30;7.67;;;;;;;0.54;76.57;99901.05;1734632;82;20995;-72
2022/01/10 10:56:01;;;;;;;9.50;7.40;;;;;;;0.55;76.52;99900.59;1742105;80;21122;-72
2022/01/10 10:58:28;;;;;;;10.68;7.25;;;;;;;0.55;76.41;99910.98;1736234;80;21145;-74
2022/01/10 11:00:55;;;;;;;10.13;7.62;;;;;;;0.55;76.30;99913.12;1759862;80;22163;-74
2022/01/10 11:03:22;;;;;;;11.08;8.28;;;;;;;0.52;76.08;99922.36;1747750;80;21126;-77
2022/01/10 11:05:49;;;;;;;9.90;7.85;;;;;;;0.46;75.84;99923.93;1757820;81;21281;-76
2022/01/10 11:08:17;;;;;;;11.05;8.05;;;;;;;0.45;75.84;99925.30;1726127;81;20985;-74
2022/01/10 11:10:44;;;;;;;9.65;7.55;;;;;;;0.47;75.86;99931.27;1744896;82;21555;-73
2022/01/10 11:13:12;;;;;;;12.30;8.30;;;;;;;0.45;75.79;99922.70;1745901;82;22813;-73
2022/01/10 11:15:39;;;;;;;12.13;8.80;;;;;;;0.43;75.71;99931.87;1743320;82;20972;-74
2022/01/10 11:18:08;;;;;;;11.90;8.95;;;;;;;0.41;75.67;99931.56;1718762;82;21084;-74
2022/01/10 11:20:47;;;;;;;11.95;8.90;;;;;;;0.40;75.68;99930.72;1745550;82;21440;-75
2022/01/10 11:23:13;;;;;;;13.62;9.50;;;;;;;0.40;75.73;99929.88;1734478;82;20992;-74
2022/01/10 11:25:42;;;;;;;13.03;9.53;;;;;;;0.41;75.77;99930.27;1745517;82;22237;-79
2022/01/10 11:28:25;;;;;;;12.30;9.20;;;;;;;0.42;75.82;99934.09;1762125;80;20979;-74
2022/01/10 11:31:02;;;;;;;12.65;9.48;;;;;;;0.44;75.80;99938.75;1784561;80;21050;-78
2022/01/10 11:33:36;;;;;;;13.43;10.08;;;;;;;0.41;75.66;99944.09;1761830;81;21013;-77
2022/01/10 11:36:04;;;;;;;14.40;10.18;;;;;;;0.38;75.61;99948.11;1744547;81;20964;-75
2022/01/10 11:38:57;;;;;;;13.75;9.95;;;;;;;0.36;75.56;99949.09;1736319;80;21672;-75